sensor_id;sensor_type;location;lat;lon;timestamp;P1;durP1;ratioP1;P2;durP2;ratioP2
55493;SDS011;41355;50.390;19.096;2022-10-16T00:01:17;17.95;;;9.60;;
55493;SDS011;41355;50.390;19.096;2022-10-16T00:03:45;19.15;;;9.07;;
55493;SDS011;41355;50.390;19.096;2022-10-16T00:06:12;13.35;;;8.00;;
55493;SDS011;41355;50.390;19.096;2022-10-16T00:08:38;17.40;;;9.35;;
55493;SDS011;41355;50.390;19.096;2022-10-16T00:13:31;15.50;;;9.02;;
55493;SDS011;41355;50.390;19.096;2022-10-16T00:15:58;15.90;;;9.10;;
55493;SDS011;41355;50.390;19.096;2022-10-16T00:18:25;16.42;;;9.63;;
55493;SDS011;41355;50.390;19.096;2022-10-16T00:20:51;17.50;;;9.25;;
55493;SDS011;41355;50.390;19.096;2022-10-16T00:23:17;15.43;;;9.02;;
55493;SDS011;41355;50.390;19.096;2022-10-16T00:25:43;15.38;;;8.60;;
55493;SDS011;41355;50.390;19.096;2022-10-16T00:28:09;15.77;;;9.02;;
55493;SDS011;41355;50.390;19.096;2022-10-16T00:30:38;13.98;;;9.00;;
55493;SDS011;41355;50.390;19.096;2022-10-16T00:33:05;15.40;;;9.13;;
55493;SDS011;41355;50.390;19.096;2022-10-16T00:35:31;18.42;;;10.00;;
55493;SDS011;41355;50.390;19.096;2022-10-16T00:37:57;16.42;;;9.48;;
55493;SDS011;41355;50.390;19.096;2022-10-16T00:40:23;17.05;;;9.73;;
55493;SDS011;41355;50.390;19.096;2022-10-16T00:42:49;16.25;;;9.95;;
55493;SDS011;41355;50.390;19.096;2022-10-16T00:45:15;15.95;;;9.18;;
55493;SDS011;41355;50.390;19.096;2022-10-16T00:47:43;15.65;;;9.48;;
55493;SDS011;41355;50.390;19.096;2022-10-16T00:50:21;15.82;;;8.93;;
55493;SDS011;41355;50.390;19.096;2022-10-16T00:52:48;14.77;;;8.57;;
55493;SDS011;41355;50.390;19.096;2022-10-16T00:55:15;14.05;;;9.02;;
55493;SDS011;41355;50.390;19.096;2022-10-16T00:57:42;15.38;;;9.15;;
55493;SDS011;41355;50.390;19.096;2022-10-16T01:00:09;14.77;;;8.90;;
55493;SDS011;41355;50.390;19.096;2022-10-16T01:02:35;16.92;;;9.93;;
55493;SDS011;41355;50.390;19.096;2022-10-16T01:05:02;18.60;;;10.20;;
55493;SDS011;41355;50.390;19.096;2022-10-16T01:10:35;17.02;;;9.60;;
55493;SDS011;41355;50.390;19.096;2022-10-16T01:15:37;16.52;;;9.23;;
55493;SDS011;41355;50.390;19.096;2022-10-16T01:18:21;15.73;;;9.23;;
55493;SDS011;41355;50.390;19.096;2022-10-16T01:20:50;17.73;;;9.32;;
55493;SDS011;41355;50.390;19.096;2022-10-16T01:28:51;19.30;;;9.43;;
55493;SDS011;41355;50.390;19.096;2022-10-16T01:31:19;14.10;;;9.05;;
55493;SDS011;41355;50.390;19.096;2022-10-16T01:33:50;17.42;;;9.60;;
55493;SDS011;41355;50.390;19.096;2022-10-16T01:36:19;16.55;;;9.43;;
55493;SDS011;41355;50.390;19.096;2022-10-16T01:38:47;17.42;;;9.75;;
55493;SDS011;41355;50.390;19.096;2022-10-16T01:41:19;17.63;;;9.20;;
55493;SDS011;41355;50.390;19.096;2022-10-16T01:43:52;18.00;;;9.90;;
55493;SDS011;41355;50.390;19.096;2022-10-16T01:46:19;16.45;;;9.75;;
55493;SDS011;41355;50.390;19.096;2022-10-16T01:48:47;16.38;;;10.60;;
55493;SDS011;41355;50.390;19.096;2022-10-16T01:51:14;20.08;;;10.13;;
55493;SDS011;41355;50.390;19.096;2022-10-16T01:53:41;16.80;;;10.63;;
55493;SDS011;41355;50.390;19.096;2022-10-16T01:56:09;18.67;;;10.30;;
55493;SDS011;41355;50.390;19.096;2022-10-16T01:58:38;23.25;;;12.10;;
55493;SDS011;41355;50.390;19.096;2022-10-16T02:01:06;20.65;;;11.02;;
55493;SDS011;41355;50.390;19.096;2022-10-16T02:03:33;19.33;;;11.38;;
55493;SDS011;41355;50.390;19.096;2022-10-16T02:06:00;24.10;;;12.55;;
55493;SDS011;41355;50.390;19.096;2022-10-16T02:08:27;18.17;;;10.68;;
55493;SDS011;41355;50.390;19.096;2022-10-16T02:10:57;24.52;;;15.85;;
55493;SDS011;41355;50.390;19.096;2022-10-16T02:13:28;31.13;;;16.40;;
55493;SDS011;41355;50.390;19.096;2022-10-16T02:15:55;30.63;;;19.73;;
55493;SDS011;41355;50.390;19.096;2022-10-16T02:18:21;33.78;;;20.55;;
55493;SDS011;41355;50.390;19.096;2022-10-16T02:20:50;29.23;;;17.30;;
55493;SDS011;41355;50.390;19.096;2022-10-16T02:23:19;28.60;;;15.35;;
55493;SDS011;41355;50.390;19.096;2022-10-16T02:25:47;23.67;;;14.60;;
55493;SDS011;41355;50.390;19.096;2022-10-16T02:28:17;23.38;;;14.25;;
55493;SDS011;41355;50.390;19.096;2022-10-16T02:31:06;23.55;;;13.23;;
55493;SDS011;41355;50.390;19.096;2022-10-16T02:33:31;21.92;;;14.18;;
55493;SDS011;41355;50.390;19.096;2022-10-16T02:35:58;24.35;;;13.32;;
55493;SDS011;41355;50.390;19.096;2022-10-16T02:38:24;22.90;;;13.43;;
55493;SDS011;41355;50.390;19.096;2022-10-16T02:40:51;23.92;;;13.05;;
55493;SDS011;41355;50.390;19.096;2022-10-16T02:43:17;25.95;;;12.75;;
55493;SDS011;41355;50.390;19.096;2022-10-16T02:45:43;21.45;;;12.57;;
55493;SDS011;41355;50.390;19.096;2022-10-16T02:48:09;21.60;;;12.35;;
55493;SDS011;41355;50.390;19.096;2022-10-16T02:50:35;22.05;;;12.23;;
55493;SDS011;41355;50.390;19.096;2022-10-16T02:53:01;25.17;;;12.77;;
55493;SDS011;41355;50.390;19.096;2022-10-16T02:55:27;20.65;;;12.27;;
55493;SDS011;41355;50.390;19.096;2022-10-16T02:57:53;25.25;;;12.95;;
55493;SDS011;41355;50.390;19.096;2022-10-16T03:00:20;21.13;;;12.52;;
55493;SDS011;41355;50.390;19.096;2022-10-16T03:02:46;21.80;;;12.85;;
55493;SDS011;41355;50.390;19.096;2022-10-16T03:05:12;23.55;;;13.68;;
55493;SDS011;41355;50.390;19.096;2022-10-16T03:07:39;24.90;;;13.65;;
55493;SDS011;41355;50.390;19.096;2022-10-16T03:10:05;23.75;;;13.68;;
55493;SDS011;41355;50.390;19.096;2022-10-16T03:12:32;24.75;;;12.07;;
55493;SDS011;41355;50.390;19.096;2022-10-16T03:14:58;22.23;;;12.95;;
55493;SDS011;41355;50.390;19.096;2022-10-16T03:17:24;22.42;;;13.32;;
55493;SDS011;41355;50.390;19.096;2022-10-16T03:19:50;25.35;;;14.10;;
55493;SDS011;41355;50.390;19.096;2022-10-16T03:22:16;25.80;;;13.80;;
55493;SDS011;41355;50.390;19.096;2022-10-16T03:24:45;23.88;;;13.55;;
55493;SDS011;41355;50.390;19.096;2022-10-16T03:27:11;24.10;;;13.63;;
55493;SDS011;41355;50.390;19.096;2022-10-16T03:29:37;23.20;;;14.02;;
55493;SDS011;41355;50.390;19.096;2022-10-16T03:32:03;24.38;;;12.95;;
55493;SDS011;41355;50.390;19.096;2022-10-16T03:34:29;25.65;;;14.23;;
55493;SDS011;41355;50.390;19.096;2022-10-16T03:36:55;28.70;;;14.45;;
55493;SDS011;41355;50.390;19.096;2022-10-16T03:39:21;25.85;;;14.80;;
55493;SDS011;41355;50.390;19.096;2022-10-16T03:41:47;28.15;;;14.90;;
55493;SDS011;41355;50.390;19.096;2022-10-16T03:44:13;29.20;;;14.75;;
55493;SDS011;41355;50.390;19.096;2022-10-16T03:46:39;26.17;;;14.63;;
55493;SDS011;41355;50.390;19.096;2022-10-16T03:49:06;25.10;;;14.32;;
55493;SDS011;41355;50.390;19.096;2022-10-16T03:51:32;22.60;;;13.18;;
55493;SDS011;41355;50.390;19.096;2022-10-16T03:53:58;25.73;;;13.55;;
55493;SDS011;41355;50.390;19.096;2022-10-16T03:56:24;26.42;;;14.02;;
55493;SDS011;41355;50.390;19.096;2022-10-16T03:58:50;24.10;;;13.85;;
55493;SDS011;41355;50.390;19.096;2022-10-16T04:01:16;25.08;;;12.98;;
55493;SDS011;41355;50.390;19.096;2022-10-16T04:03:42;22.85;;;12.77;;
55493;SDS011;41355;50.390;19.096;2022-10-16T04:06:08;23.48;;;13.30;;
55493;SDS011;41355;50.390;19.096;2022-10-16T04:08:34;24.15;;;12.73;;
55493;SDS011;41355;50.390;19.096;2022-10-16T04:11:01;23.83;;;13.18;;
55493;SDS011;41355;50.390;19.096;2022-10-16T04:13:27;26.70;;;13.48;;
55493;SDS011;41355;50.390;19.096;2022-10-16T04:15:54;28.67;;;13.13;;
55493;SDS011;41355;50.390;19.096;2022-10-16T04:18:20;22.90;;;13.00;;
55493;SDS011;41355;50.390;19.096;2022-10-16T04:20:46;24.60;;;13.20;;
55493;SDS011;41355;50.390;19.096;2022-10-16T04:23:12;21.83;;;13.38;;
55493;SDS011;41355;50.390;19.096;2022-10-16T04:25:41;22.40;;;12.98;;
55493;SDS011;41355;50.390;19.096;2022-10-16T04:28:07;21.70;;;12.20;;
55493;SDS011;41355;50.390;19.096;2022-10-16T04:30:33;27.50;;;14.48;;
55493;SDS011;41355;50.390;19.096;2022-10-16T04:32:59;23.88;;;12.40;;
55493;SDS011;41355;50.390;19.096;2022-10-16T04:35:25;21.75;;;12.32;;
55493;SDS011;41355;50.390;19.096;2022-10-16T04:37:51;23.00;;;13.20;;
55493;SDS011;41355;50.390;19.096;2022-10-16T04:40:17;20.63;;;12.85;;
55493;SDS011;41355;50.390;19.096;2022-10-16T04:42:43;25.13;;;12.85;;
55493;SDS011;41355;50.390;19.096;2022-10-16T04:45:09;25.13;;;13.55;;
55493;SDS011;41355;50.390;19.096;2022-10-16T04:47:35;26.50;;;14.05;;
55493;SDS011;41355;50.390;19.096;2022-10-16T04:50:01;22.83;;;13.55;;
55493;SDS011;41355;50.390;19.096;2022-10-16T04:52:28;24.95;;;14.13;;
55493;SDS011;41355;50.390;19.096;2022-10-16T04:54:54;24.08;;;14.57;;
55493;SDS011;41355;50.390;19.096;2022-10-16T04:57:21;28.42;;;17.63;;
55493;SDS011;41355;50.390;19.096;2022-10-16T04:59:47;37.25;;;19.08;;
55493;SDS011;41355;50.390;19.096;2022-10-16T05:02:13;26.75;;;15.60;;
55493;SDS011;41355;50.390;19.096;2022-10-16T05:04:39;29.83;;;16.40;;
55493;SDS011;41355;50.390;19.096;2022-10-16T05:07:05;28.75;;;15.93;;
55493;SDS011;41355;50.390;19.096;2022-10-16T05:09:31;29.30;;;16.45;;
55493;SDS011;41355;50.390;19.096;2022-10-16T05:11:57;32.53;;;16.33;;
55493;SDS011;41355;50.390;19.096;2022-10-16T05:14:23;25.80;;;14.95;;
55493;SDS011;41355;50.390;19.096;2022-10-16T05:16:49;29.67;;;16.52;;
55493;SDS011;41355;50.390;19.096;2022-10-16T05:19:16;31.55;;;16.33;;
55493;SDS011;41355;50.390;19.096;2022-10-16T05:21:43;28.23;;;16.13;;
55493;SDS011;41355;50.390;19.096;2022-10-16T05:24:09;27.73;;;16.00;;
55493;SDS011;41355;50.390;19.096;2022-10-16T05:26:35;32.58;;;17.48;;
55493;SDS011;41355;50.390;19.096;2022-10-16T05:29:01;29.85;;;17.10;;
55493;SDS011;41355;50.390;19.096;2022-10-16T05:31:27;29.48;;;15.57;;
55493;SDS011;41355;50.390;19.096;2022-10-16T05:33:57;29.02;;;16.55;;
55493;SDS011;41355;50.390;19.096;2022-10-16T05:36:23;30.50;;;14.55;;
55493;SDS011;41355;50.390;19.096;2022-10-16T05:38:50;32.10;;;16.73;;
55493;SDS011;41355;50.390;19.096;2022-10-16T05:41:16;26.15;;;15.43;;
55493;SDS011;41355;50.390;19.096;2022-10-16T05:43:49;29.08;;;15.57;;
55493;SDS011;41355;50.390;19.096;2022-10-16T05:46:15;27.98;;;15.30;;
55493;SDS011;41355;50.390;19.096;2022-10-16T05:48:41;25.10;;;14.05;;
55493;SDS011;41355;50.390;19.096;2022-10-16T05:51:10;21.17;;;12.90;;
55493;SDS011;41355;50.390;19.096;2022-10-16T05:53:37;26.92;;;14.23;;
55493;SDS011;41355;50.390;19.096;2022-10-16T05:56:04;23.73;;;13.88;;
55493;SDS011;41355;50.390;19.096;2022-10-16T05:58:31;27.83;;;14.82;;
55493;SDS011;41355;50.390;19.096;2022-10-16T06:00:59;24.88;;;14.60;;
55493;SDS011;41355;50.390;19.096;2022-10-16T06:03:26;26.65;;;14.07;;
55493;SDS011;41355;50.390;19.096;2022-10-16T06:05:52;27.23;;;15.07;;
55493;SDS011;41355;50.390;19.096;2022-10-16T06:08:19;28.35;;;14.18;;
55493;SDS011;41355;50.390;19.096;2022-10-16T06:10:45;27.05;;;14.73;;
55493;SDS011;41355;50.390;19.096;2022-10-16T06:13:12;30.60;;;14.60;;
55493;SDS011;41355;50.390;19.096;2022-10-16T06:15:40;25.27;;;14.02;;
55493;SDS011;41355;50.390;19.096;2022-10-16T06:18:07;25.45;;;14.35;;
55493;SDS011;41355;50.390;19.096;2022-10-16T06:20:34;25.02;;;14.80;;
55493;SDS011;41355;50.390;19.096;2022-10-16T06:23:00;24.10;;;14.30;;
55493;SDS011;41355;50.390;19.096;2022-10-16T06:25:26;27.17;;;14.63;;
55493;SDS011;41355;50.390;19.096;2022-10-16T06:27:52;27.83;;;15.13;;
55493;SDS011;41355;50.390;19.096;2022-10-16T06:30:18;25.33;;;14.57;;
55493;SDS011;41355;50.390;19.096;2022-10-16T06:32:44;31.67;;;17.10;;
55493;SDS011;41355;50.390;19.096;2022-10-16T06:35:10;34.85;;;19.30;;
55493;SDS011;41355;50.390;19.096;2022-10-16T06:37:36;32.33;;;18.30;;
55493;SDS011;41355;50.390;19.096;2022-10-16T06:40:02;32.42;;;18.73;;
55493;SDS011;41355;50.390;19.096;2022-10-16T06:42:29;32.30;;;18.80;;
55493;SDS011;41355;50.390;19.096;2022-10-16T06:44:55;34.10;;;18.92;;
55493;SDS011;41355;50.390;19.096;2022-10-16T06:47:21;34.90;;;18.45;;
55493;SDS011;41355;50.390;19.096;2022-10-16T06:49:47;30.80;;;16.67;;
55493;SDS011;41355;50.390;19.096;2022-10-16T06:52:13;29.08;;;16.90;;
55493;SDS011;41355;50.390;19.096;2022-10-16T06:54:39;25.33;;;14.70;;
55493;SDS011;41355;50.390;19.096;2022-10-16T06:57:05;24.77;;;14.32;;
55493;SDS011;41355;50.390;19.096;2022-10-16T06:59:31;25.50;;;13.48;;
55493;SDS011;41355;50.390;19.096;2022-10-16T07:01:57;25.25;;;13.73;;
55493;SDS011;41355;50.390;19.096;2022-10-16T07:04:24;24.45;;;13.07;;
55493;SDS011;41355;50.390;19.096;2022-10-16T07:06:50;24.88;;;14.15;;
55493;SDS011;41355;50.390;19.096;2022-10-16T07:09:16;23.75;;;13.02;;
55493;SDS011;41355;50.390;19.096;2022-10-16T07:11:42;23.23;;;13.45;;
55493;SDS011;41355;50.390;19.096;2022-10-16T07:14:15;24.27;;;13.68;;
55493;SDS011;41355;50.390;19.096;2022-10-16T07:16:42;21.87;;;13.10;;
55493;SDS011;41355;50.390;19.096;2022-10-16T07:19:08;25.85;;;14.52;;
55493;SDS011;41355;50.390;19.096;2022-10-16T07:21:36;24.67;;;13.32;;
55493;SDS011;41355;50.390;19.096;2022-10-16T07:24:02;22.80;;;12.57;;
55493;SDS011;41355;50.390;19.096;2022-10-16T07:26:30;23.52;;;14.02;;
55493;SDS011;41355;50.390;19.096;2022-10-16T07:28:56;22.08;;;12.80;;
55493;SDS011;41355;50.390;19.096;2022-10-16T07:31:26;23.88;;;13.25;;
55493;SDS011;41355;50.390;19.096;2022-10-16T07:33:55;23.88;;;13.05;;
55493;SDS011;41355;50.390;19.096;2022-10-16T07:36:23;19.27;;;11.80;;
55493;SDS011;41355;50.390;19.096;2022-10-16T07:38:49;16.65;;;9.75;;
55493;SDS011;41355;50.390;19.096;2022-10-16T07:41:16;15.50;;;9.93;;
55493;SDS011;41355;50.390;19.096;2022-10-16T07:43:46;19.63;;;11.45;;
55493;SDS011;41355;50.390;19.096;2022-10-16T07:46:15;17.90;;;11.27;;
55493;SDS011;41355;50.390;19.096;2022-10-16T07:48:41;20.33;;;12.18;;
55493;SDS011;41355;50.390;19.096;2022-10-16T07:51:11;19.40;;;10.57;;
55493;SDS011;41355;50.390;19.096;2022-10-16T07:53:37;18.52;;;10.48;;
55493;SDS011;41355;50.390;19.096;2022-10-16T07:56:04;15.93;;;9.20;;
55493;SDS011;41355;50.390;19.096;2022-10-16T07:58:31;18.42;;;10.00;;
55493;SDS011;41355;50.390;19.096;2022-10-16T08:00:57;15.27;;;9.23;;
55493;SDS011;41355;50.390;19.096;2022-10-16T08:03:24;15.93;;;9.05;;
55493;SDS011;41355;50.390;19.096;2022-10-16T08:05:53;20.45;;;9.85;;
55493;SDS011;41355;50.390;19.096;2022-10-16T08:08:19;15.20;;;9.30;;
55493;SDS011;41355;50.390;19.096;2022-10-16T08:10:45;15.10;;;8.85;;
55493;SDS011;41355;50.390;19.096;2022-10-16T08:13:12;15.43;;;8.98;;
55493;SDS011;41355;50.390;19.096;2022-10-16T08:15:39;14.48;;;8.90;;
55493;SDS011;41355;50.390;19.096;2022-10-16T08:18:06;18.70;;;9.02;;
55493;SDS011;41355;50.390;19.096;2022-10-16T08:20:32;14.63;;;8.60;;
55493;SDS011;41355;50.390;19.096;2022-10-16T08:22:58;20.30;;;8.85;;
55493;SDS011;41355;50.390;19.096;2022-10-16T08:25:25;12.15;;;7.30;;
55493;SDS011;41355;50.390;19.096;2022-10-16T08:27:54;12.43;;;7.55;;
55493;SDS011;41355;50.390;19.096;2022-10-16T08:30:21;13.88;;;7.35;;
55493;SDS011;41355;50.390;19.096;2022-10-16T08:32:47;11.95;;;6.68;;
55493;SDS011;41355;50.390;19.096;2022-10-16T08:35:15;16.98;;;7.68;;
55493;SDS011;41355;50.390;19.096;2022-10-16T08:37:41;14.38;;;6.80;;
55493;SDS011;41355;50.390;19.096;2022-10-16T08:40:15;13.80;;;6.90;;
55493;SDS011;41355;50.390;19.096;2022-10-16T08:50:26;12.32;;;6.63;;
55493;SDS011;41355;50.390;19.096;2022-10-16T08:52:53;10.45;;;6.20;;
55493;SDS011;41355;50.390;19.096;2022-10-16T08:57:46;13.80;;;6.40;;
55493;SDS011;41355;50.390;19.096;2022-10-16T09:00:12;10.50;;;6.55;;
55493;SDS011;41355;50.390;19.096;2022-10-16T09:02:49;11.35;;;6.03;;
55493;SDS011;41355;50.390;19.096;2022-10-16T09:18:06;12.30;;;6.00;;
55493;SDS011;41355;50.390;19.096;2022-10-16T09:20:52;11.57;;;6.10;;
55493;SDS011;41355;50.390;19.096;2022-10-16T09:23:22;9.15;;;5.97;;
55493;SDS011;41355;50.390;19.096;2022-10-16T09:25:51;10.02;;;5.63;;
55493;SDS011;41355;50.390;19.096;2022-10-16T09:28:20;10.35;;;5.50;;
55493;SDS011;41355;50.390;19.096;2022-10-16T09:30:46;9.50;;;5.57;;
55493;SDS011;41355;50.390;19.096;2022-10-16T09:33:19;11.27;;;6.28;;
55493;SDS011;41355;50.390;19.096;2022-10-16T09:35:49;10.93;;;6.18;;
55493;SDS011;41355;50.390;19.096;2022-10-16T09:38:25;8.75;;;5.88;;
55493;SDS011;41355;50.390;19.096;2022-10-16T09:40:52;10.95;;;6.75;;
55493;SDS011;41355;50.390;19.096;2022-10-16T09:48:43;12.05;;;6.18;;
55493;SDS011;41355;50.390;19.096;2022-10-16T09:51:19;10.48;;;6.10;;
55493;SDS011;41355;50.390;19.096;2022-10-16T09:53:47;12.90;;;6.10;;
55493;SDS011;41355;50.390;19.096;2022-10-16T09:56:32;9.88;;;6.05;;
55493;SDS011;41355;50.390;19.096;2022-10-16T09:59:02;10.02;;;6.82;;
55493;SDS011;41355;50.390;19.096;2022-10-16T10:04:03;9.63;;;5.70;;
55493;SDS011;41355;50.390;19.096;2022-10-16T10:06:30;11.20;;;5.93;;
55493;SDS011;41355;50.390;19.096;2022-10-16T10:09:04;12.70;;;6.00;;
55493;SDS011;41355;50.390;19.096;2022-10-16T10:11:36;12.07;;;6.63;;
55493;SDS011;41355;50.390;19.096;2022-10-16T10:14:21;11.32;;;6.50;;
55493;SDS011;41355;50.390;19.096;2022-10-16T10:16:48;11.68;;;6.40;;
55493;SDS011;41355;50.390;19.096;2022-10-16T10:21:48;11.73;;;5.50;;
55493;SDS011;41355;50.390;19.096;2022-10-16T10:24:16;11.00;;;6.07;;
55493;SDS011;41355;50.390;19.096;2022-10-16T10:27:00;9.50;;;5.82;;
55493;SDS011;41355;50.390;19.096;2022-10-16T10:32:08;10.57;;;5.72;;
55493;SDS011;41355;50.390;19.096;2022-10-16T10:37:28;11.20;;;5.90;;
55493;SDS011;41355;50.390;19.096;2022-10-16T10:39:55;11.00;;;6.15;;
55493;SDS011;41355;50.390;19.096;2022-10-16T10:45:11;11.23;;;5.60;;
55493;SDS011;41355;50.390;19.096;2022-10-16T10:53:02;8.38;;;5.00;;
55493;SDS011;41355;50.390;19.096;2022-10-16T10:55:45;11.75;;;5.53;;
55493;SDS011;41355;50.390;19.096;2022-10-16T11:08:43;12.30;;;6.03;;
55493;SDS011;41355;50.390;19.096;2022-10-16T11:11:29;11.32;;;6.15;;
55493;SDS011;41355;50.390;19.096;2022-10-16T11:30:45;10.27;;;5.57;;
55493;SDS011;41355;50.390;19.096;2022-10-16T11:36:11;9.73;;;6.30;;
55493;SDS011;41355;50.390;19.096;2022-10-16T11:38:43;11.93;;;6.57;;
55493;SDS011;41355;50.390;19.096;2022-10-16T11:41:24;11.85;;;6.55;;
55493;SDS011;41355;50.390;19.096;2022-10-16T11:46:40;10.43;;;5.63;;
55493;SDS011;41355;50.390;19.096;2022-10-16T11:49:26;10.10;;;5.32;;
55493;SDS011;41355;50.390;19.096;2022-10-16T11:56:52;8.85;;;5.47;;
55493;SDS011;41355;50.390;19.096;2022-10-16T11:59:25;9.75;;;5.70;;
55493;SDS011;41355;50.390;19.096;2022-10-16T12:04:45;9.95;;;5.32;;
55493;SDS011;41355;50.390;19.096;2022-10-16T12:07:15;12.60;;;7.38;;
55493;SDS011;41355;50.390;19.096;2022-10-16T12:09:43;11.73;;;6.13;;
55493;SDS011;41355;50.390;19.096;2022-10-16T12:15:01;10.43;;;5.50;;
55493;SDS011;41355;50.390;19.096;2022-10-16T12:17:34;10.85;;;5.40;;
55493;SDS011;41355;50.390;19.096;2022-10-16T12:22:47;9.88;;;5.65;;
55493;SDS011;41355;50.390;19.096;2022-10-16T12:25:20;9.50;;;5.60;;
55493;SDS011;41355;50.390;19.096;2022-10-16T12:27:53;9.88;;;6.05;;
55493;SDS011;41355;50.390;19.096;2022-10-16T12:30:24;11.27;;;6.13;;
55493;SDS011;41355;50.390;19.096;2022-10-16T12:32:56;10.23;;;6.40;;
55493;SDS011;41355;50.390;19.096;2022-10-16T12:35:27;12.20;;;6.38;;
55493;SDS011;41355;50.390;19.096;2022-10-16T12:37:54;11.25;;;6.85;;
55493;SDS011;41355;50.390;19.096;2022-10-16T12:40:27;16.17;;;9.70;;
55493;SDS011;41355;50.390;19.096;2022-10-16T12:42:54;14.02;;;7.70;;
55493;SDS011;41355;50.390;19.096;2022-10-16T12:45:30;14.00;;;6.50;;
55493;SDS011;41355;50.390;19.096;2022-10-16T12:47:57;25.23;;;14.70;;
55493;SDS011;41355;50.390;19.096;2022-10-16T12:52:49;38.83;;;22.92;;
55493;SDS011;41355;50.390;19.096;2022-10-16T12:55:17;15.45;;;9.20;;
55493;SDS011;41355;50.390;19.096;2022-10-16T13:00:18;27.17;;;14.88;;
55493;SDS011;41355;50.390;19.096;2022-10-16T13:07:56;18.60;;;7.50;;
55493;SDS011;41355;50.390;19.096;2022-10-16T13:10:26;12.30;;;7.90;;
55493;SDS011;41355;50.390;19.096;2022-10-16T13:28:34;14.98;;;6.28;;
55493;SDS011;41355;50.390;19.096;2022-10-16T13:31:01;10.73;;;6.43;;
55493;SDS011;41355;50.390;19.096;2022-10-16T13:33:40;11.85;;;6.55;;
55493;SDS011;41355;50.390;19.096;2022-10-16T13:36:18;15.27;;;6.43;;
55493;SDS011;41355;50.390;19.096;2022-10-16T13:38:44;12.13;;;6.40;;
55493;SDS011;41355;50.390;19.096;2022-10-16T13:41:14;11.30;;;6.13;;
55493;SDS011;41355;50.390;19.096;2022-10-16T13:43:42;14.43;;;7.32;;
55493;SDS011;41355;50.390;19.096;2022-10-16T13:46:13;11.40;;;6.53;;
55493;SDS011;41355;50.390;19.096;2022-10-16T13:48:39;13.98;;;6.82;;
55493;SDS011;41355;50.390;19.096;2022-10-16T13:51:18;11.30;;;6.85;;
55493;SDS011;41355;50.390;19.096;2022-10-16T13:53:45;11.25;;;6.72;;
55493;SDS011;41355;50.390;19.096;2022-10-16T13:56:13;14.55;;;7.25;;
55493;SDS011;41355;50.390;19.096;2022-10-16T13:58:39;12.88;;;7.47;;
55493;SDS011;41355;50.390;19.096;2022-10-16T14:01:15;11.25;;;7.35;;
55493;SDS011;41355;50.390;19.096;2022-10-16T14:03:41;10.93;;;6.70;;
55493;SDS011;41355;50.390;19.096;2022-10-16T14:06:11;11.95;;;6.53;;
55493;SDS011;41355;50.390;19.096;2022-10-16T14:08:42;12.57;;;8.30;;
55493;SDS011;41355;50.390;19.096;2022-10-16T14:11:09;12.80;;;8.27;;
55493;SDS011;41355;50.390;19.096;2022-10-16T14:13:39;9.48;;;6.00;;
55493;SDS011;41355;50.390;19.096;2022-10-16T14:16:07;14.48;;;6.93;;
55493;SDS011;41355;50.390;19.096;2022-10-16T14:18:33;12.00;;;6.75;;
55493;SDS011;41355;50.390;19.096;2022-10-16T14:21:03;12.18;;;6.40;;
55493;SDS011;41355;50.390;19.096;2022-10-16T14:23:36;11.02;;;6.75;;
55493;SDS011;41355;50.390;19.096;2022-10-16T14:28:36;11.60;;;7.07;;
55493;SDS011;41355;50.390;19.096;2022-10-16T14:33:47;10.43;;;6.80;;
55493;SDS011;41355;50.390;19.096;2022-10-16T14:36:15;12.70;;;6.70;;
55493;SDS011;41355;50.390;19.096;2022-10-16T14:39:05;13.00;;;6.47;;
55493;SDS011;41355;50.390;19.096;2022-10-16T14:41:30;10.88;;;6.53;;
55493;SDS011;41355;50.390;19.096;2022-10-16T14:44:03;10.98;;;6.75;;
55493;SDS011;41355;50.390;19.096;2022-10-16T14:46:34;10.68;;;6.28;;
55493;SDS011;41355;50.390;19.096;2022-10-16T14:49:19;11.13;;;6.28;;
55493;SDS011;41355;50.390;19.096;2022-10-16T14:51:46;14.00;;;6.85;;
55493;SDS011;41355;50.390;19.096;2022-10-16T14:54:13;11.35;;;6.25;;
55493;SDS011;41355;50.390;19.096;2022-10-16T14:59:26;13.73;;;6.78;;
55493;SDS011;41355;50.390;19.096;2022-10-16T15:01:53;18.63;;;9.10;;
55493;SDS011;41355;50.390;19.096;2022-10-16T15:04:19;14.02;;;7.97;;
55493;SDS011;41355;50.390;19.096;2022-10-16T15:06:48;13.35;;;7.57;;
55493;SDS011;41355;50.390;19.096;2022-10-16T15:09:14;14.30;;;7.05;;
55493;SDS011;41355;50.390;19.096;2022-10-16T15:11:41;12.55;;;7.18;;
55493;SDS011;41355;50.390;19.096;2022-10-16T15:14:11;14.10;;;7.95;;
55493;SDS011;41355;50.390;19.096;2022-10-16T15:16:38;11.65;;;7.50;;
55493;SDS011;41355;50.390;19.096;2022-10-16T15:19:04;15.10;;;8.30;;
55493;SDS011;41355;50.390;19.096;2022-10-16T15:21:30;13.82;;;8.40;;
55493;SDS011;41355;50.390;19.096;2022-10-16T15:23:57;11.98;;;8.10;;
55493;SDS011;41355;50.390;19.096;2022-10-16T15:26:24;15.98;;;9.82;;
55493;SDS011;41355;50.390;19.096;2022-10-16T15:28:51;13.95;;;9.18;;
55493;SDS011;41355;50.390;19.096;2022-10-16T15:31:17;19.92;;;10.98;;
55493;SDS011;41355;50.390;19.096;2022-10-16T15:33:43;14.30;;;9.35;;
55493;SDS011;41355;50.390;19.096;2022-10-16T15:36:12;14.52;;;10.00;;
55493;SDS011;41355;50.390;19.096;2022-10-16T15:38:39;16.20;;;10.77;;
55493;SDS011;41355;50.390;19.096;2022-10-16T15:41:05;13.27;;;8.60;;
55493;SDS011;41355;50.390;19.096;2022-10-16T15:43:31;13.68;;;8.45;;
55493;SDS011;41355;50.390;19.096;2022-10-16T15:46:01;15.57;;;8.93;;
55493;SDS011;41355;50.390;19.096;2022-10-16T15:48:27;15.88;;;9.10;;
55493;SDS011;41355;50.390;19.096;2022-10-16T15:50:54;16.17;;;11.73;;
55493;SDS011;41355;50.390;19.096;2022-10-16T15:53:20;20.77;;;13.00;;
55493;SDS011;41355;50.390;19.096;2022-10-16T15:55:46;16.05;;;10.85;;
55493;SDS011;41355;50.390;19.096;2022-10-16T15:58:12;20.00;;;11.32;;
55493;SDS011;41355;50.390;19.096;2022-10-16T16:00:38;20.63;;;13.13;;
55493;SDS011;41355;50.390;19.096;2022-10-16T16:03:04;24.58;;;15.63;;
55493;SDS011;41355;50.390;19.096;2022-10-16T16:05:30;26.20;;;14.90;;
55493;SDS011;41355;50.390;19.096;2022-10-16T16:07:58;26.75;;;16.58;;
55493;SDS011;41355;50.390;19.096;2022-10-16T16:10:24;38.65;;;24.23;;
55493;SDS011;41355;50.390;19.096;2022-10-16T16:12:50;37.22;;;24.00;;
55493;SDS011;41355;50.390;19.096;2022-10-16T16:15:21;36.28;;;22.05;;
55493;SDS011;41355;50.390;19.096;2022-10-16T16:17:47;42.47;;;28.88;;
55493;SDS011;41355;50.390;19.096;2022-10-16T16:20:13;37.35;;;25.05;;
55493;SDS011;41355;50.390;19.096;2022-10-16T16:22:39;38.78;;;24.58;;
55493;SDS011;41355;50.390;19.096;2022-10-16T16:25:06;38.55;;;24.27;;
55493;SDS011;41355;50.390;19.096;2022-10-16T16:27:32;34.60;;;21.05;;
55493;SDS011;41355;50.390;19.096;2022-10-16T16:29:59;39.53;;;23.55;;
55493;SDS011;41355;50.390;19.096;2022-10-16T16:32:25;34.88;;;21.50;;
55493;SDS011;41355;50.390;19.096;2022-10-16T16:34:51;31.58;;;20.23;;
55493;SDS011;41355;50.390;19.096;2022-10-16T16:37:17;33.00;;;19.75;;
55493;SDS011;41355;50.390;19.096;2022-10-16T16:39:46;30.73;;;19.27;;
55493;SDS011;41355;50.390;19.096;2022-10-16T16:42:12;33.95;;;20.85;;